KCRE/CRE METAR and TAF weather

Enter ICAO airport designator
Station Type Date Time Source
KCRE METAR 2022/01/19 20:53 UTC NOAA

KCRE 192053Z 19005KT 10SM CLR 13/07 A3021 RMK AO1 SLP229 T01280067 56019


Station Type Date Time Source
KCRE Decoded METAR 2022/01/19 20:53 UTC NOAA

N. MYRTLE BCH.GRAND STRAND, SC, United States (KCRE) 33-49N 078-43W 10M
Jan 19, 2022 - 03:53 PM EST / 2022.01.19 2053 UTC
Wind: from the S (190 degrees) at 6 MPH (5 KT):0
Visibility: 10 mile(s):0
Sky conditions: clear
Temperature: 55.0 F (12.8 C)
Dew Point: 44.1 F (6.7 C)
Relative Humidity: 66%
Pressure (altimeter): 30.21 in. Hg (1023 hPa)
Pressure tendency: 0.06 inches (1.9 hPa) lower than three hours ago
ob: KCRE 192053Z 19005KT 10SM CLR 13/07 A3021 RMK AO1 SLP229 T01280067 56019
cycle: 21

Station Type Date Time Source
KCRE TAF 2022/01/19 18:27 UTC NOAA

TAF KCRE 191725Z 1918/2018 21008KT P6SM FEW200
FM200200 23007KT P6SM BKN200
FM201600 23009KT P6SM BKN100

Example: see airport list